createdAt,value
2022-11-05T00:02:14.497Z,54.9
2022-11-05T00:07:14.624Z,54.6
2022-11-05T00:12:14.604Z,54.8
2022-11-05T00:17:14.683Z,54.9
2022-11-05T00:22:14.597Z,55
2022-11-05T00:27:14.481Z,55.1
2022-11-05T00:32:14.386Z,54.5
2022-11-05T00:37:14.355Z,54.9
2022-11-05T00:42:14.490Z,54.5
2022-11-05T00:47:14.448Z,54.9
2022-11-05T00:52:16.902Z,54.7
2022-11-05T00:57:19.117Z,55
2022-11-05T01:02:18.946Z,54.7
2022-11-05T01:07:21.469Z,55.3
2022-11-05T01:12:20.719Z,55.2
2022-11-05T01:17:21.430Z,54.7
2022-11-05T01:22:23.957Z,55
2022-11-05T01:27:23.438Z,54.8
2022-11-05T01:32:23.290Z,55.2
2022-11-05T01:37:23.248Z,55
2022-11-05T01:42:25.735Z,55.2
2022-11-05T01:47:27.898Z,55.1
2022-11-05T01:52:27.604Z,54.9
2022-11-05T01:57:30.222Z,54.8
2022-11-05T02:02:32.516Z,55.1
2022-11-05T02:07:36.242Z,54.9
2022-11-05T02:12:35.167Z,55.3
2022-11-05T02:17:37.718Z,55.1
2022-11-05T02:22:36.849Z,55.4
2022-11-05T02:27:36.586Z,55.1
2022-11-05T02:32:36.525Z,54.7
2022-11-05T02:37:36.674Z,55.2
2022-11-05T02:42:39.379Z,54.9
2022-11-05T02:47:38.805Z,54.9
2022-11-05T02:52:41.353Z,54.8
2022-11-05T02:57:40.758Z,55.2
2022-11-05T03:02:43.593Z,55.2
2022-11-05T03:07:42.620Z,55.1
2022-11-05T03:12:45.218Z,54.9
2022-11-05T03:17:44.669Z,55
2022-11-05T03:22:44.615Z,55.2
2022-11-05T03:27:44.648Z,55.2
2022-11-05T03:32:44.414Z,54.8
2022-11-05T03:37:44.381Z,55.4
2022-11-05T03:42:47.078Z,55
2022-11-05T03:47:49.191Z,54.9
2022-11-05T03:52:48.641Z,55
2022-11-05T03:57:50.932Z,55.5
2022-11-05T04:02:50.721Z,55.4
2022-11-05T04:07:50.351Z,55
2022-11-05T04:12:50.088Z,55.1
2022-11-05T04:17:50.088Z,54.7
2022-11-05T04:22:52.829Z,54.7
2022-11-05T04:27:54.982Z,54.8
2022-11-05T04:32:54.536Z,55.3
2022-11-05T04:37:54.567Z,55
2022-11-05T04:42:57.201Z,54.8
2022-11-05T04:47:56.671Z,54.9
2022-11-05T04:52:56.496Z,54.9
2022-11-05T04:57:56.432Z,55.2
2022-11-05T05:02:56.363Z,54.4
2022-11-05T05:07:56.468Z,54.5
2022-11-05T05:12:56.387Z,54.7
2022-11-05T05:17:56.292Z,55.2
2022-11-05T05:22:56.141Z,54.5
2022-11-05T05:27:58.790Z,54.9
2022-11-05T05:32:58.258Z,54.9
2022-11-05T05:38:00.872Z,55.4
2022-11-05T05:43:03.087Z,55.8
2022-11-05T05:48:05.151Z,55.6
2022-11-05T05:53:04.571Z,55.3
2022-11-05T05:58:04.774Z,55.2
2022-11-05T06:03:07.691Z,55.1
2022-11-05T06:08:06.728Z,55.2
2022-11-05T06:13:06.620Z,55.2
2022-11-05T06:18:06.488Z,55.1
2022-11-05T06:23:09.744Z,55.1
2022-11-05T06:28:09.047Z,54.9
2022-11-05T06:33:09.284Z,55.3
2022-11-05T06:38:11.632Z,55
2022-11-05T06:43:11.434Z,54.9
2022-11-05T06:48:11.089Z,54.8
2022-11-05T06:53:11.304Z,54.9
2022-11-05T06:58:10.973Z,54
2022-11-05T07:03:11.229Z,54.1
2022-11-05T07:08:11.090Z,53.7
2022-11-05T07:13:11.587Z,53.8
2022-11-05T07:18:13.735Z,53.9
2022-11-05T07:23:13.666Z,53.7
2022-11-05T07:28:13.217Z,53.6
2022-11-05T07:33:13.642Z,52.8
2022-11-05T07:38:13.426Z,53.1
2022-11-05T07:43:14.044Z,52.8
2022-11-05T07:48:16.268Z,53.1
2022-11-05T07:53:18.483Z,52.8
2022-11-05T07:58:17.913Z,52.6
2022-11-05T08:03:20.986Z,53.3
2022-11-05T08:08:20.146Z,53.8
2022-11-05T08:13:20.314Z,53.8
2022-11-05T08:18:23.131Z,53.5
2022-11-05T08:23:25.339Z,53.4
2022-11-05T08:28:24.985Z,53.5
2022-11-05T08:33:24.962Z,53.3
2022-11-05T08:38:27.405Z,53.1
2022-11-05T08:43:27.085Z,53
2022-11-05T08:48:27.044Z,52.8
2022-11-05T08:53:27.021Z,53
2022-11-05T08:58:29.712Z,53.2
2022-11-05T09:03:28.811Z,53.2
2022-11-05T09:08:28.506Z,53.4
2022-11-05T09:13:31.378Z,53.2
2022-11-05T09:18:30.954Z,53.2
2022-11-05T09:23:33.457Z,53.5
2022-11-05T09:28:32.951Z,53.6
2022-11-05T09:33:32.944Z,53.1
2022-11-05T09:38:35.697Z,53.3
2022-11-05T09:43:35.316Z,53.5
2022-11-05T09:48:37.763Z,53.6
2022-11-05T09:53:37.343Z,53.4
2022-11-05T09:58:37.538Z,53.6
2022-11-05T10:03:40.099Z,53.5
2022-11-05T10:08:39.530Z,53.6
2022-11-05T10:13:39.249Z,53.5
2022-11-05T10:18:39.205Z,53.8
2022-11-05T10:23:39.001Z,53.7
2022-11-05T10:28:38.705Z,53.9
2022-11-05T10:33:40.524Z,54.2
2022-11-05T10:38:43.026Z,54.1
2022-11-05T10:43:42.361Z,54.2
2022-11-05T10:48:43.798Z,54
2022-11-05T10:53:42.476Z,54.3
2022-11-05T10:58:42.326Z,53.9
2022-11-05T11:03:42.063Z,54.1
2022-11-05T11:08:42.310Z,54
2022-11-05T11:13:42.076Z,53.9
2022-11-05T11:18:41.986Z,53.6
2022-11-05T11:23:41.856Z,53.8
2022-11-05T11:28:44.443Z,54.1
2022-11-05T11:33:43.810Z,54
2022-11-05T11:38:46.559Z,53.9
2022-11-05T11:43:46.165Z,54.3
2022-11-05T11:48:45.781Z,54.2
2022-11-05T11:53:45.626Z,54.6
2022-11-05T11:58:45.507Z,54.5
2022-11-05T12:03:48.125Z,54.3
2022-11-05T12:08:56.490Z,54.5
2022-11-05T12:13:52.594Z,54.5
2022-11-05T12:18:52.104Z,55
2022-11-05T12:23:51.886Z,54.8
2022-11-05T12:29:17.053Z,54.6
2022-11-05T12:33:54.606Z,54.6
2022-11-05T12:38:56.916Z,54.8
2022-11-05T12:43:59.200Z,54.7
2022-11-05T12:48:58.634Z,54.5
2022-11-05T12:53:58.791Z,54.6
2022-11-05T12:58:58.884Z,54.5
2022-11-05T13:03:58.730Z,54.1
2022-11-05T13:09:01.325Z,54.1
2022-11-05T13:14:00.761Z,54.1
2022-11-05T13:19:00.744Z,53.8
2022-11-05T13:24:00.491Z,53.7
2022-11-05T13:29:00.694Z,53.6
2022-11-05T13:34:03.323Z,53.4
2022-11-05T13:39:02.903Z,53.5
2022-11-05T13:44:02.949Z,53.4
2022-11-05T13:49:02.813Z,53.4
2022-11-05T13:54:02.916Z,53.4
2022-11-05T13:59:05.619Z,53.4
2022-11-05T14:04:05.094Z,53.4
2022-11-05T14:09:04.924Z,53.5
2022-11-05T14:14:04.911Z,53.4
2022-11-05T14:19:04.859Z,53.4
2022-11-05T14:24:03.705Z,53.5
2022-11-05T14:29:03.857Z,53.4
2022-11-05T14:34:04.072Z,53.5
2022-11-05T14:39:04.526Z,53.6
2022-11-05T14:44:06.635Z,53.6
2022-11-05T14:49:09.582Z,53.6
2022-11-05T14:54:08.672Z,53.6
2022-11-05T14:59:09.992Z,53.8
2022-11-05T15:04:09.681Z,53.9
2022-11-05T15:09:09.543Z,53.8
2022-11-05T15:14:09.433Z,53.9
2022-11-05T15:19:09.331Z,53.9
2022-11-05T15:24:09.282Z,53.9
2022-11-05T15:29:09.282Z,53.9
2022-11-05T15:34:09.199Z,53.9
2022-11-05T15:39:28.263Z,53.9
2022-11-05T15:44:13.972Z,53.7
2022-11-05T15:49:13.313Z,53.7
2022-11-05T15:54:29.504Z,53.8
2022-11-05T15:59:13.104Z,53.8
2022-11-05T16:04:13.178Z,53.5
2022-11-05T16:09:13.244Z,53.4
2022-11-05T16:14:13.159Z,53.7
2022-11-05T16:19:15.941Z,53.6
2022-11-05T16:24:18.110Z,53.6
2022-11-05T16:29:20.334Z,53.4
2022-11-05T16:34:22.397Z,53.3
2022-11-05T16:39:22.232Z,53.5
2022-11-05T16:44:21.853Z,53.3
2022-11-05T16:49:21.955Z,52.1
2022-11-05T16:54:21.806Z,52.9
2022-11-05T16:59:21.779Z,53.3
2022-11-05T17:04:21.582Z,53.6
2022-11-05T17:09:21.740Z,53.6
2022-11-05T17:14:21.570Z,53.3
2022-11-05T17:19:21.707Z,53.7
2022-11-05T17:24:24.407Z,53.5
2022-11-05T17:29:23.705Z,53.4
2022-11-05T17:34:23.879Z,53.3
2022-11-05T17:39:28.792Z,53.3
2022-11-05T17:44:23.937Z,53.4
2022-11-05T17:49:26.566Z,53.4
2022-11-05T17:54:28.980Z,53.3
2022-11-05T17:59:28.362Z,53.3
2022-11-05T18:04:28.438Z,53.3
2022-11-05T18:09:28.200Z,53.2
2022-11-05T18:14:26.812Z,53.3
2022-11-05T18:19:26.871Z,53.3
2022-11-05T18:24:26.545Z,53.5
2022-11-05T18:29:26.607Z,53.6
2022-11-05T18:34:29.408Z,53.4
2022-11-05T18:39:29.048Z,53.6
2022-11-05T18:44:29.013Z,53.4
2022-11-05T18:49:29.039Z,53.7
2022-11-05T18:54:29.683Z,53.7
2022-11-05T18:59:38.949Z,53.6
2022-11-05T19:04:35.849Z,53.6
2022-11-05T19:09:38.019Z,53.8
2022-11-05T19:14:37.457Z,54
2022-11-05T19:19:37.518Z,53.9
2022-11-05T19:24:37.526Z,53.9
2022-11-05T19:29:37.422Z,53.8
2022-11-05T19:34:37.186Z,53.8
2022-11-05T19:39:37.193Z,53.7
2022-11-05T19:44:36.919Z,54.2
2022-11-05T19:49:39.788Z,54
2022-11-05T19:54:39.153Z,53.9
2022-11-05T19:59:39.174Z,53.9
2022-11-05T20:04:39.165Z,54
2022-11-05T20:09:41.993Z,54
2022-11-05T20:14:41.374Z,53.9
2022-11-05T20:19:42.275Z,53.9
2022-11-05T20:24:41.890Z,53.8
2022-11-05T20:29:41.829Z,54
2022-11-05T20:34:41.776Z,53.6
2022-11-05T20:39:41.598Z,53.9
2022-11-05T20:44:41.412Z,53.8
2022-11-05T20:49:41.279Z,54.1
2022-11-05T20:54:41.191Z,53.8
2022-11-05T20:59:41.294Z,53.9
2022-11-05T21:04:41.341Z,53.8
2022-11-05T21:09:41.434Z,53.9
2022-11-05T21:14:41.461Z,53.7
2022-11-05T21:19:41.469Z,54
2022-11-05T21:24:41.492Z,53.9
2022-11-05T21:29:41.471Z,53.9
2022-11-05T21:34:41.734Z,53.9
2022-11-05T21:39:44.502Z,54
2022-11-05T21:44:43.930Z,54.2
2022-11-05T21:49:43.890Z,54.1
2022-11-05T21:54:43.592Z,54.4
2022-11-05T21:59:43.445Z,54
2022-11-05T22:04:43.496Z,54.4
2022-11-05T22:09:43.417Z,54.4
2022-11-05T22:14:46.197Z,54.2
2022-11-05T22:19:45.620Z,54.5
2022-11-05T22:24:45.537Z,54.1
2022-11-05T22:29:45.157Z,54.4
2022-11-05T22:34:45.078Z,54.4
2022-11-05T22:39:45.009Z,54.3
2022-11-05T22:44:44.940Z,54.4
2022-11-05T22:49:44.958Z,54.3
2022-11-05T22:54:43.514Z,54.3
2022-11-05T22:59:46.601Z,54.3
2022-11-05T23:04:46.109Z,54.2
2022-11-05T23:09:46.031Z,54.4
2022-11-05T23:14:45.985Z,54.4
2022-11-05T23:19:46.149Z,54.6
2022-11-05T23:24:46.583Z,54.5
2022-11-05T23:29:46.251Z,54.5
2022-11-05T23:34:46.190Z,54.5
2022-11-05T23:39:46.393Z,54.7
2022-11-05T23:44:49.081Z,54.6
2022-11-05T23:49:51.177Z,54.7
2022-11-05T23:54:50.894Z,54.4
2022-11-05T23:59:50.908Z,54.4
